createdAt,value
2023-10-16T00:00:32.258Z,1.20
2023-10-16T00:03:00.316Z,1.08
2023-10-16T00:05:38.021Z,1.10
2023-10-16T00:08:05.607Z,0.88
2023-10-16T00:10:32.526Z,0.80
2023-10-16T00:12:59.145Z,0.90
2023-10-16T00:15:25.902Z,1.02
2023-10-16T00:17:52.726Z,0.60
2023-10-16T00:20:19.458Z,1.15
2023-10-16T00:22:47.399Z,0.98
2023-10-16T00:25:14.019Z,0.90
2023-10-16T00:27:40.806Z,0.95
2023-10-16T00:30:08.359Z,0.82
2023-10-16T00:32:35.262Z,0.90
2023-10-16T00:35:01.882Z,1.05
2023-10-16T00:37:28.494Z,0.98
2023-10-16T00:39:56.431Z,1.35
2023-10-16T00:42:23.098Z,1.27
2023-10-16T00:44:54.301Z,1.20
2023-10-16T00:47:21.037Z,1.05
2023-10-16T00:49:47.725Z,1.02
2023-10-16T00:52:14.515Z,0.73
2023-10-16T00:54:41.796Z,0.90
2023-10-16T00:57:10.303Z,1.02
2023-10-16T00:59:36.990Z,1.08
2023-10-16T01:02:03.727Z,0.80
2023-10-16T01:04:30.382Z,0.82
2023-10-16T01:06:58.837Z,0.77
2023-10-16T01:09:25.429Z,1.00
2023-10-16T01:11:53.155Z,1.48
2023-10-16T01:14:21.496Z,0.60
2023-10-16T01:16:48.310Z,1.77
2023-10-16T01:19:14.906Z,1.00
2023-10-16T01:21:41.521Z,0.90
2023-10-16T01:24:09.909Z,0.95
2023-10-16T01:26:36.697Z,1.10
2023-10-16T01:29:03.286Z,0.93
2023-10-16T01:31:30.062Z,0.88
2023-10-16T01:33:56.749Z,1.25
2023-10-16T01:36:23.545Z,0.90
2023-10-16T01:38:50.265Z,1.20
2023-10-16T01:41:18.291Z,0.80
2023-10-16T01:43:45.128Z,1.00
2023-10-16T01:46:13.077Z,0.90
2023-10-16T01:48:42.650Z,0.90
2023-10-16T01:51:11.572Z,1.20
2023-10-16T01:53:39.093Z,1.25
2023-10-16T01:56:06.561Z,1.58
2023-10-16T01:58:34.525Z,0.90
2023-10-16T02:01:01.228Z,0.73
2023-10-16T02:03:28.073Z,1.02
2023-10-16T02:05:54.667Z,0.90
2023-10-16T02:08:24.649Z,1.00
2023-10-16T02:10:51.163Z,1.15
2023-10-16T02:13:17.787Z,1.00
2023-10-16T02:15:45.853Z,1.00
2023-10-16T02:18:12.714Z,1.10
2023-10-16T02:20:39.937Z,0.93
2023-10-16T02:23:06.472Z,1.30
2023-10-16T02:25:33.135Z,1.00
2023-10-16T02:27:59.805Z,0.98
2023-10-16T02:30:26.566Z,1.08
2023-10-16T02:32:54.995Z,1.42
2023-10-16T02:35:22.040Z,1.42
2023-10-16T02:37:48.628Z,1.42
2023-10-16T02:40:15.271Z,1.52
2023-10-16T02:42:41.946Z,1.20
2023-10-16T02:45:09.330Z,1.00
2023-10-16T02:47:35.898Z,1.02
2023-10-16T02:50:04.207Z,0.77
2023-10-16T02:52:30.861Z,0.85
2023-10-16T02:54:57.599Z,1.10
2023-10-16T02:57:24.208Z,0.80
2023-10-16T02:59:50.827Z,1.00
2023-10-16T03:02:17.493Z,1.08
2023-10-16T03:04:44.801Z,1.65
2023-10-16T03:07:12.732Z,0.90
2023-10-16T03:09:39.333Z,0.90
2023-10-16T03:12:06.305Z,1.08
2023-10-16T03:14:33.160Z,1.77
2023-10-16T03:17:00.387Z,0.88
2023-10-16T03:19:27.438Z,0.80
2023-10-16T03:21:54.276Z,1.00
2023-10-16T03:24:22.297Z,1.23
2023-10-16T03:26:48.846Z,0.70
2023-10-16T03:29:15.420Z,1.00
2023-10-16T03:31:42.146Z,1.17
2023-10-16T03:34:08.813Z,1.00
2023-10-16T03:36:35.624Z,1.25
2023-10-16T03:39:02.471Z,1.20
2023-10-16T03:41:30.673Z,1.02
2023-10-16T03:43:57.401Z,1.40
2023-10-16T03:46:24.463Z,1.30
2023-10-16T03:48:51.255Z,1.75
2023-10-16T03:51:17.987Z,1.60
2023-10-16T03:53:44.799Z,0.95
2023-10-16T03:56:11.740Z,1.30
2023-10-16T03:58:39.613Z,1.52
2023-10-16T04:01:06.166Z,1.05
2023-10-16T04:03:32.864Z,1.10
2023-10-16T04:05:59.502Z,1.48
2023-10-16T04:08:26.109Z,1.20
2023-10-16T04:10:53.450Z,1.08
2023-10-16T04:13:20.383Z,0.60
2023-10-16T04:15:48.772Z,1.38
2023-10-16T04:18:15.560Z,1.27
2023-10-16T04:20:42.090Z,0.95
2023-10-16T04:23:08.666Z,1.38
2023-10-16T04:25:35.234Z,1.08
2023-10-16T04:28:01.819Z,0.95
2023-10-16T04:30:28.426Z,0.80
2023-10-16T04:32:56.434Z,1.27
2023-10-16T04:35:23.635Z,0.90
2023-10-16T04:37:51.298Z,0.90
2023-10-16T04:40:18.147Z,1.42
2023-10-16T04:42:44.799Z,1.20
2023-10-16T04:45:12.497Z,1.02
2023-10-16T04:47:39.097Z,0.88
2023-10-16T04:50:08.313Z,1.10
2023-10-16T04:52:34.988Z,1.40
2023-10-16T04:55:01.680Z,0.85
2023-10-16T04:57:28.307Z,0.93
2023-10-16T04:59:55.018Z,1.80
2023-10-16T05:02:21.779Z,1.67
2023-10-16T05:04:48.800Z,1.50
2023-10-16T05:07:16.805Z,1.35
2023-10-16T05:09:43.476Z,1.20
2023-10-16T05:12:12.683Z,2.00
2023-10-16T05:14:39.291Z,1.20
2023-10-16T05:17:06.202Z,1.05
2023-10-16T05:19:32.773Z,1.45
2023-10-16T05:21:59.487Z,1.08
2023-10-16T05:24:27.689Z,1.20
2023-10-16T05:26:55.091Z,1.00
2023-10-16T05:29:21.793Z,1.35
2023-10-16T05:31:48.519Z,1.00
2023-10-16T05:34:15.196Z,1.42
2023-10-16T05:36:41.966Z,1.27
2023-10-16T05:39:08.687Z,1.25
2023-10-16T05:41:36.706Z,1.20
2023-10-16T05:44:03.313Z,1.10
2023-10-16T05:46:30.204Z,1.10
2023-10-16T05:48:57.146Z,1.95
2023-10-16T05:51:23.953Z,1.27
2023-10-16T05:53:50.666Z,1.23
2023-10-16T05:56:17.256Z,1.25
2023-10-16T05:58:45.286Z,1.23
2023-10-16T06:01:12.083Z,1.40
2023-10-16T06:03:39.023Z,1.27
2023-10-16T06:06:06.263Z,1.40
2023-10-16T06:08:32.929Z,1.13
2023-10-16T06:11:02.727Z,1.27
2023-10-16T06:13:29.347Z,1.42
2023-10-16T06:15:58.175Z,1.00
2023-10-16T06:18:25.407Z,1.50
2023-10-16T06:20:52.708Z,1.80
2023-10-16T06:23:19.414Z,1.17
2023-10-16T06:25:46.031Z,1.20
2023-10-16T06:28:13.060Z,1.20
2023-10-16T06:30:39.773Z,1.83
2023-10-16T06:33:08.211Z,1.23
2023-10-16T06:35:34.867Z,1.52
2023-10-16T06:38:04.610Z,1.30
2023-10-16T06:40:31.284Z,1.40
2023-10-16T06:42:58.048Z,1.33
2023-10-16T06:45:24.764Z,1.23
2023-10-16T06:47:51.500Z,1.23
2023-10-16T06:50:19.542Z,3.03
2023-10-16T06:52:46.230Z,1.80
2023-10-16T06:55:12.988Z,1.15
2023-10-16T06:57:39.618Z,1.40
2023-10-16T07:00:07.439Z,1.58
2023-10-16T07:02:37.228Z,1.30
2023-10-16T07:05:04.821Z,1.25
2023-10-16T07:07:38.172Z,1.63
2023-10-16T07:10:06.107Z,1.25
2023-10-16T07:12:32.810Z,1.83
2023-10-16T07:14:59.759Z,1.80
2023-10-16T07:17:26.766Z,1.83
2023-10-16T07:19:53.855Z,1.30
2023-10-16T07:22:20.811Z,2.00
2023-10-16T07:24:52.815Z,1.25
2023-10-16T07:27:19.738Z,2.85
2023-10-16T07:29:46.476Z,1.65
2023-10-16T07:32:13.054Z,1.65
2023-10-16T07:34:39.712Z,1.70
2023-10-16T07:37:09.099Z,1.30
2023-10-16T07:39:35.984Z,2.00
2023-10-16T07:42:04.257Z,1.60
2023-10-16T07:44:30.817Z,1.75
2023-10-16T07:46:57.855Z,1.60
2023-10-16T07:49:24.480Z,1.45
2023-10-16T07:51:51.195Z,1.23
2023-10-16T07:54:23.539Z,1.40
2023-10-16T07:56:53.511Z,1.60
2023-10-16T07:59:21.936Z,1.58
2023-10-16T08:01:50.411Z,1.15
2023-10-16T08:04:17.848Z,1.63
2023-10-16T08:06:44.859Z,1.52
2023-10-16T08:09:13.460Z,1.63
2023-10-16T08:11:40.936Z,1.80
2023-10-16T08:14:07.974Z,1.58
2023-10-16T08:16:36.596Z,1.42
2023-10-16T08:19:03.709Z,1.02
2023-10-16T08:21:30.970Z,1.35
2023-10-16T08:23:58.835Z,1.33
2023-10-16T08:26:26.570Z,2.95
2023-10-16T08:28:53.354Z,2.30
2023-10-16T08:31:23.009Z,1.45
2023-10-16T08:33:58.348Z,1.38
2023-10-16T08:36:25.597Z,1.52
2023-10-16T08:38:52.686Z,1.75
2023-10-16T08:41:29.787Z,1.50
2023-10-16T08:44:00.482Z,1.40
2023-10-16T08:46:27.527Z,1.73
2023-10-16T08:48:56.142Z,1.10
2023-10-16T08:51:22.900Z,1.65
2023-10-16T08:53:49.554Z,1.48
2023-10-16T08:56:18.750Z,1.35
2023-10-16T08:58:46.474Z,1.80
2023-10-16T09:01:21.303Z,1.48
2023-10-16T09:03:54.695Z,1.50
2023-10-16T09:06:23.194Z,1.50
2023-10-16T09:08:50.338Z,1.33
2023-10-16T09:11:31.873Z,1.73
2023-10-16T09:13:59.244Z,1.20
2023-10-16T09:16:28.747Z,1.90
2023-10-16T09:18:55.478Z,1.35
2023-10-16T09:21:23.568Z,1.33
2023-10-16T09:23:51.421Z,1.10
2023-10-16T09:26:18.886Z,2.40
2023-10-16T09:28:47.786Z,1.45
2023-10-16T09:31:18.017Z,1.20
2023-10-16T09:33:48.233Z,1.73
2023-10-16T09:36:17.244Z,1.00
2023-10-16T09:38:46.619Z,2.55
2023-10-16T09:41:13.405Z,1.33
2023-10-16T09:43:40.169Z,1.55
2023-10-16T09:46:07.621Z,1.17
2023-10-16T09:48:34.688Z,1.48
2023-10-16T09:51:01.916Z,1.20
2023-10-16T09:53:28.775Z,1.10
2023-10-16T09:56:02.651Z,1.20
2023-10-16T09:58:34.830Z,1.08
2023-10-16T10:01:02.988Z,1.50
2023-10-16T10:03:29.869Z,1.60
2023-10-16T10:05:57.641Z,1.23
2023-10-16T10:08:29.027Z,0.90
2023-10-16T10:11:14.252Z,1.42
2023-10-16T10:13:53.577Z,2.97
2023-10-16T10:16:23.474Z,1.13
2023-10-16T10:18:52.429Z,1.30
2023-10-16T10:21:20.848Z,1.45
2023-10-16T10:23:47.904Z,1.20
2023-10-16T10:26:18.912Z,1.10
2023-10-16T10:28:46.424Z,0.90
2023-10-16T10:31:13.906Z,1.30
2023-10-16T10:33:42.482Z,1.10
2023-10-16T10:36:31.979Z,1.20
2023-10-16T10:39:44.439Z,1.35
2023-10-16T10:42:15.514Z,1.10
2023-10-16T10:44:53.606Z,1.23
2023-10-16T10:47:21.828Z,1.13
2023-10-16T10:49:50.819Z,1.00
2023-10-16T10:52:20.504Z,1.00
2023-10-16T10:54:56.036Z,0.90
2023-10-16T10:57:28.049Z,0.70
2023-10-16T10:59:58.413Z,1.52
2023-10-16T11:02:25.390Z,0.65
2023-10-16T11:04:55.304Z,1.20
2023-10-16T11:07:25.666Z,1.60
2023-10-16T11:09:53.391Z,1.35
2023-10-16T11:12:20.573Z,1.05
2023-10-16T11:14:48.918Z,1.00
2023-10-16T11:17:29.900Z,1.08
2023-10-16T11:19:56.927Z,1.02
2023-10-16T11:22:24.937Z,0.80
2023-10-16T11:24:52.096Z,1.02
2023-10-16T11:27:18.929Z,0.80
2023-10-16T11:29:45.712Z,1.08
2023-10-16T11:32:14.088Z,0.77
2023-10-16T11:34:44.477Z,1.05
2023-10-16T11:37:11.606Z,0.77
2023-10-16T11:39:38.296Z,1.10
2023-10-16T11:42:05.308Z,1.27
2023-10-16T11:44:32.313Z,1.20
2023-10-16T11:46:59.802Z,1.08
2023-10-16T11:49:28.627Z,0.70
2023-10-16T11:51:59.220Z,0.70
2023-10-16T11:54:26.841Z,0.70
2023-10-16T11:56:58.560Z,0.75
2023-10-16T11:59:27.658Z,0.88
2023-10-16T12:04:42.979Z,0.73
2023-10-16T12:07:10.243Z,0.90
2023-10-16T12:09:37.276Z,0.70
2023-10-16T12:12:04.678Z,0.70
2023-10-16T12:14:31.427Z,1.15
2023-10-16T12:16:58.225Z,0.75
2023-10-16T12:19:27.781Z,0.70
2023-10-16T12:22:02.389Z,0.98
2023-10-16T12:24:29.666Z,0.95
2023-10-16T12:26:56.691Z,0.80
2023-10-16T12:29:23.546Z,0.80
2023-10-16T12:31:50.272Z,0.57
2023-10-16T12:34:16.954Z,1.10
2023-10-16T12:36:44.034Z,0.90
2023-10-16T12:39:12.195Z,0.90
2023-10-16T12:41:38.959Z,1.25
2023-10-16T12:44:08.136Z,0.90
2023-10-16T12:46:36.150Z,1.30
2023-10-16T12:49:03.074Z,0.70
2023-10-16T12:51:29.704Z,1.00
2023-10-16T12:53:56.559Z,1.63
2023-10-16T12:56:24.842Z,0.70
2023-10-16T12:59:01.456Z,0.85
2023-10-16T13:01:28.600Z,0.80
2023-10-16T13:03:55.649Z,0.80
2023-10-16T13:06:22.462Z,1.00
2023-10-16T13:08:49.333Z,1.35
2023-10-16T13:11:16.120Z,0.75
2023-10-16T13:13:44.235Z,0.80
2023-10-16T13:16:10.985Z,0.73
2023-10-16T13:18:38.024Z,1.38
2023-10-16T13:21:05.018Z,0.80
2023-10-16T13:23:45.737Z,0.70
2023-10-16T13:26:14.207Z,1.42
2023-10-16T13:28:42.548Z,0.80
2023-10-16T13:31:11.112Z,0.77
2023-10-16T13:33:37.951Z,0.60
2023-10-16T13:36:05.818Z,0.70
2023-10-16T13:38:32.909Z,0.80
2023-10-16T13:40:59.634Z,0.73
2023-10-16T13:43:26.411Z,0.65
2023-10-16T13:45:53.150Z,0.70
2023-10-16T13:48:21.380Z,0.70
2023-10-16T13:50:48.471Z,0.90
2023-10-16T13:53:15.302Z,0.60
2023-10-16T13:55:42.356Z,2.00
2023-10-16T13:58:09.266Z,1.25
2023-10-16T14:00:36.118Z,1.10
2023-10-16T14:03:05.030Z,1.17
2023-10-16T14:05:34.810Z,1.00
2023-10-16T14:08:01.835Z,0.80
2023-10-16T14:10:28.441Z,1.50
2023-10-16T14:12:55.825Z,0.57
2023-10-16T14:15:22.535Z,0.88
2023-10-16T14:17:49.365Z,1.25
2023-10-16T14:20:16.163Z,1.60
2023-10-16T14:22:44.297Z,2.30
2023-10-16T14:25:11.205Z,0.90
2023-10-16T14:27:38.110Z,0.70
2023-10-16T14:30:06.082Z,0.70
2023-10-16T14:32:32.812Z,1.00
2023-10-16T14:34:59.677Z,0.82
2023-10-16T14:37:26.457Z,1.58
2023-10-16T14:39:57.555Z,0.70
2023-10-16T14:42:24.162Z,0.70
2023-10-16T14:44:50.909Z,0.80
2023-10-16T14:47:18.799Z,0.90
2023-10-16T14:49:45.628Z,0.77
2023-10-16T14:52:17.322Z,0.70
2023-10-16T14:54:44.197Z,1.00
2023-10-16T14:57:12.298Z,0.82
2023-10-16T14:59:39.038Z,0.68
2023-10-16T15:02:06.520Z,0.80
2023-10-16T15:04:33.557Z,6.45
2023-10-16T15:07:00.882Z,1.63
2023-10-16T15:09:27.585Z,1.60
2023-10-16T15:11:54.399Z,1.60
2023-10-16T15:14:23.226Z,1.50
2023-10-16T15:16:50.102Z,1.23
2023-10-16T15:19:16.951Z,1.02
2023-10-16T15:21:43.782Z,0.90
2023-10-16T15:24:10.835Z,0.77
2023-10-16T15:26:38.939Z,0.68
2023-10-16T15:29:05.801Z,1.60
2023-10-16T15:31:33.960Z,1.00
2023-10-16T15:34:01.218Z,0.98
2023-10-16T15:36:28.001Z,0.95
2023-10-16T15:38:55.506Z,1.50
2023-10-16T15:41:22.183Z,1.33
2023-10-16T15:43:52.364Z,1.55
2023-10-16T15:46:26.161Z,1.70
2023-10-16T15:48:54.815Z,2.22
2023-10-16T15:51:21.886Z,2.65
2023-10-16T15:53:48.605Z,6.90
2023-10-16T15:56:15.425Z,4.28
2023-10-16T15:58:42.238Z,4.22
2023-10-16T16:01:10.089Z,3.60
2023-10-16T16:03:36.855Z,3.20
2023-10-16T16:06:17.517Z,2.53
2023-10-16T16:08:56.631Z,2.53
2023-10-16T16:11:23.431Z,3.13
2023-10-16T16:13:50.167Z,3.33
2023-10-16T16:16:17.161Z,3.08
2023-10-16T16:18:44.233Z,3.70
2023-10-16T16:21:12.286Z,3.15
2023-10-16T16:23:40.614Z,4.25
2023-10-16T16:26:07.458Z,6.63
2023-10-16T16:28:22.708Z,1.65
2023-10-16T16:28:34.214Z,6.20
2023-10-16T16:31:00.945Z,3.72
2023-10-16T16:33:30.688Z,3.92
2023-10-16T16:35:57.918Z,4.38
2023-10-16T16:38:26.255Z,4.78
2023-10-16T16:40:53.111Z,4.97
2023-10-16T16:43:19.905Z,4.82
2023-10-16T16:45:46.629Z,4.55
2023-10-16T16:48:13.513Z,3.65
2023-10-16T16:50:40.301Z,3.75
2023-10-16T16:53:07.033Z,3.58
2023-10-16T16:55:35.133Z,3.33
2023-10-16T16:58:01.864Z,3.00
2023-10-16T17:00:28.456Z,4.03
2023-10-16T17:02:59.495Z,4.93
2023-10-16T17:05:26.616Z,3.58
2023-10-16T17:07:53.896Z,3.28
2023-10-16T17:10:20.621Z,2.45
2023-10-16T17:12:48.757Z,2.63
2023-10-16T17:15:15.516Z,3.30
2023-10-16T17:17:42.996Z,3.13
2023-10-16T17:20:10.013Z,3.70
2023-10-16T17:23:00.713Z,3.40
2023-10-16T17:25:23.888Z,3.45
2023-10-16T17:27:52.365Z,3.42
2023-10-16T17:30:19.876Z,3.63
2023-10-16T17:32:46.748Z,6.60
2023-10-16T17:35:13.500Z,6.85
2023-10-16T17:37:40.400Z,5.47
2023-10-16T17:40:08.039Z,5.90
2023-10-16T17:42:38.083Z,5.40
2023-10-16T17:45:07.292Z,4.78
2023-10-16T17:47:34.608Z,4.10
2023-10-16T17:50:01.949Z,4.25
2023-10-16T17:52:28.752Z,5.00
2023-10-16T17:54:55.429Z,5.15
2023-10-16T17:57:22.135Z,5.13
2023-10-16T17:59:50.066Z,5.15
2023-10-16T18:02:18.187Z,4.60
2023-10-16T18:04:44.845Z,4.55
2023-10-16T18:07:11.543Z,4.97
2023-10-16T18:09:38.398Z,5.25
2023-10-16T18:12:06.074Z,5.03
2023-10-16T18:14:33.731Z,5.60
2023-10-16T18:17:00.636Z,4.07
2023-10-16T18:19:29.073Z,4.38
2023-10-16T18:21:55.914Z,4.75
2023-10-16T18:24:22.878Z,4.47
2023-10-16T18:26:49.476Z,5.95
2023-10-16T18:29:16.092Z,6.47
2023-10-16T18:31:42.840Z,6.15
2023-10-16T18:34:09.400Z,8.20
2023-10-16T18:36:37.433Z,8.35
2023-10-16T18:39:04.332Z,8.02
2023-10-16T18:41:31.117Z,9.68
2023-10-16T18:43:57.783Z,10.15
2023-10-16T18:46:24.462Z,10.55
2023-10-16T18:48:51.058Z,10.20
2023-10-16T18:51:17.854Z,11.10
2023-10-16T18:53:45.886Z,10.98
2023-10-16T18:56:12.750Z,9.90
2023-10-16T18:58:39.414Z,9.60
2023-10-16T19:01:06.869Z,9.05
2023-10-16T19:03:33.667Z,9.00
2023-10-16T19:06:04.321Z,9.68
2023-10-16T19:08:31.194Z,9.57
2023-10-16T19:11:00.298Z,8.45
2023-10-16T19:13:26.932Z,8.52
2023-10-16T19:15:53.674Z,7.95
2023-10-16T19:18:20.334Z,8.10
2023-10-16T19:20:47.028Z,7.05
2023-10-16T19:23:13.752Z,7.93
2023-10-16T19:25:40.305Z,8.05
2023-10-16T19:28:08.317Z,7.55
2023-10-16T19:30:34.954Z,8.02
2023-10-16T19:33:01.689Z,7.63
2023-10-16T19:35:28.372Z,8.55
2023-10-16T19:37:58.078Z,8.00
2023-10-16T19:40:24.654Z,8.88
2023-10-16T19:42:51.452Z,7.88
2023-10-16T19:45:19.431Z,7.95
2023-10-16T19:47:46.232Z,8.63
2023-10-16T19:50:13.547Z,7.90
2023-10-16T19:52:40.555Z,8.02
2023-10-16T19:55:09.434Z,7.40
2023-10-16T19:57:37.216Z,8.35
2023-10-16T20:00:05.272Z,9.07
2023-10-16T20:02:33.287Z,9.10
2023-10-16T20:04:59.904Z,9.02
2023-10-16T20:07:26.514Z,9.23
2023-10-16T20:09:53.267Z,9.40
2023-10-16T20:12:20.144Z,9.05
2023-10-16T20:14:46.780Z,8.98
2023-10-16T20:17:13.734Z,9.43
2023-10-16T20:19:41.797Z,8.70
2023-10-16T20:22:08.407Z,9.32
2023-10-16T20:24:35.232Z,9.50
2023-10-16T20:27:01.869Z,9.93
2023-10-16T20:29:28.561Z,10.25
2023-10-16T20:32:00.845Z,11.27
2023-10-16T20:34:28.072Z,10.35
2023-10-16T20:36:56.141Z,10.45
2023-10-16T20:39:22.800Z,11.15
2023-10-16T20:41:49.721Z,11.50
2023-10-16T20:44:16.367Z,10.57
2023-10-16T20:46:43.073Z,11.10
2023-10-16T20:49:09.696Z,9.60
2023-10-16T20:51:36.925Z,10.70
2023-10-16T20:54:05.251Z,9.68
2023-10-16T20:56:31.893Z,9.82
2023-10-16T20:58:58.502Z,9.63
2023-10-16T21:01:25.099Z,9.57
2023-10-16T21:03:51.897Z,8.90
2023-10-16T21:06:18.565Z,10.23
2023-10-16T21:08:45.325Z,9.57
2023-10-16T21:11:13.445Z,9.63
2023-10-16T21:13:40.059Z,8.65
2023-10-16T21:16:07.167Z,7.38
2023-10-16T21:18:33.890Z,6.82
2023-10-16T21:21:00.569Z,8.07
2023-10-16T21:23:27.176Z,7.03
2023-10-16T21:25:54.041Z,7.40
2023-10-16T21:28:22.037Z,6.80
2023-10-16T21:30:53.163Z,5.97
2023-10-16T21:33:19.870Z,5.97
2023-10-16T21:35:46.668Z,5.45
2023-10-16T21:38:13.221Z,6.35
2023-10-16T21:40:39.815Z,5.22
2023-10-16T21:43:06.378Z,6.35
2023-10-16T21:45:34.399Z,7.10
2023-10-16T21:48:01.186Z,6.68
2023-10-16T21:50:27.933Z,6.88
2023-10-16T21:52:54.637Z,7.20
2023-10-16T21:55:21.234Z,7.53
2023-10-16T21:57:47.904Z,7.47
2023-10-16T22:00:18.685Z,7.25
2023-10-16T22:02:46.945Z,7.47
2023-10-16T22:05:14.022Z,7.80
2023-10-16T22:07:40.982Z,7.38
2023-10-16T22:10:08.592Z,7.97
2023-10-16T22:12:35.210Z,7.60
2023-10-16T22:15:02.251Z,8.52
2023-10-16T22:17:29.010Z,8.40
2023-10-16T22:19:57.279Z,7.63
2023-10-16T22:22:23.862Z,7.47
2023-10-16T22:24:50.521Z,8.30
2023-10-16T22:27:17.412Z,8.02
2023-10-16T22:29:44.113Z,7.38
2023-10-16T22:32:10.797Z,7.35
2023-10-16T22:34:37.359Z,7.57
2023-10-16T22:37:05.380Z,7.70
2023-10-16T22:39:32.064Z,7.15
2023-10-16T22:41:58.808Z,6.35
2023-10-16T22:44:25.698Z,6.35
2023-10-16T22:46:52.673Z,6.70
2023-10-16T22:49:19.372Z,7.22
2023-10-16T22:51:46.377Z,6.25
2023-10-16T22:54:15.152Z,6.32
2023-10-16T22:56:41.762Z,7.35
2023-10-16T22:59:08.646Z,6.45
2023-10-16T23:01:36.034Z,6.78
2023-10-16T23:04:02.648Z,7.13
2023-10-16T23:06:29.478Z,7.18
2023-10-16T23:08:56.348Z,6.13
2023-10-16T23:11:24.370Z,6.78
2023-10-16T23:13:51.291Z,6.45
2023-10-16T23:16:18.165Z,6.32
2023-10-16T23:18:44.881Z,5.30
2023-10-16T23:21:11.663Z,5.80
2023-10-16T23:23:38.356Z,6.78
2023-10-16T23:26:05.913Z,5.47
2023-10-16T23:28:34.640Z,5.18
2023-10-16T23:31:03.460Z,5.13
2023-10-16T23:33:30.106Z,4.95
2023-10-16T23:35:56.938Z,5.13
2023-10-16T23:38:23.644Z,4.70
2023-10-16T23:40:50.321Z,4.93
2023-10-16T23:43:17.148Z,4.90
2023-10-16T23:45:45.134Z,4.20
2023-10-16T23:48:11.782Z,4.25
2023-10-16T23:50:38.399Z,4.32
2023-10-16T23:53:05.105Z,4.00
2023-10-16T23:55:31.742Z,3.72
2023-10-16T23:57:58.375Z,3.58
